createdAt,value
2022-09-21T00:00:27.114Z,0.00
2022-09-21T00:01:27.263Z,0.00
2022-09-21T00:02:27.181Z,0.00
2022-09-21T00:03:27.107Z,0.00
2022-09-21T00:04:27.128Z,0.00
2022-09-21T00:05:27.097Z,0.00
2022-09-21T00:06:27.097Z,0.00
2022-09-21T00:07:27.091Z,0.00
2022-09-21T00:08:27.094Z,0.00
2022-09-21T00:09:27.088Z,0.00
2022-09-21T00:10:27.084Z,0.00
2022-09-21T00:11:27.093Z,0.00
2022-09-21T00:12:27.098Z,0.00
2022-09-21T00:13:27.075Z,0.00
2022-09-21T00:14:27.077Z,0.00
2022-09-21T00:15:27.069Z,0.00
2022-09-21T00:16:27.142Z,0.00
2022-09-21T00:17:27.069Z,0.00
2022-09-21T00:18:27.060Z,0.00
2022-09-21T00:19:27.057Z,0.00
2022-09-21T00:20:27.085Z,0.00
2022-09-21T00:21:27.056Z,0.00
2022-09-21T00:22:27.049Z,0.00
2022-09-21T00:23:27.047Z,0.00
2022-09-21T00:24:27.045Z,0.00
2022-09-21T00:25:27.039Z,0.00
2022-09-21T00:26:27.045Z,0.00
2022-09-21T00:27:27.036Z,0.00
2022-09-21T00:28:27.039Z,0.00
2022-09-21T00:29:27.046Z,0.00
2022-09-21T00:30:27.030Z,0.00
2022-09-21T00:31:27.128Z,0.00
2022-09-21T00:32:27.025Z,0.00
2022-09-21T00:33:27.020Z,0.00
2022-09-21T00:34:27.017Z,0.00
2022-09-21T00:35:27.019Z,0.00
2022-09-21T00:36:27.039Z,0.00
2022-09-21T00:37:27.007Z,0.00
2022-09-21T00:38:27.008Z,0.00
2022-09-21T00:39:27.000Z,0.00
2022-09-21T00:40:27.071Z,0.00
2022-09-21T00:41:27.066Z,0.00
2022-09-21T00:42:26.992Z,0.00
2022-09-21T00:43:26.994Z,0.00
2022-09-21T00:44:26.987Z,0.00
2022-09-21T00:45:27.043Z,0.00
2022-09-21T00:46:26.983Z,0.00
2022-09-21T00:47:26.980Z,0.00
2022-09-21T00:48:26.978Z,0.00
2022-09-21T00:49:26.975Z,0.00
2022-09-21T00:50:26.969Z,0.00
2022-09-21T00:51:26.972Z,0.00
2022-09-21T00:52:26.984Z,0.00
2022-09-21T00:53:26.963Z,0.00
2022-09-21T00:54:26.959Z,0.00
2022-09-21T00:55:26.960Z,0.00
2022-09-21T00:56:26.952Z,0.00
2022-09-21T00:57:26.952Z,0.00
2022-09-21T00:58:26.947Z,0.00
2022-09-21T00:59:30.302Z,0.00
2022-09-21T01:00:26.942Z,0.00
2022-09-21T01:01:27.039Z,0.00
2022-09-21T01:02:27.055Z,0.00
2022-09-21T01:03:26.932Z,0.00
2022-09-21T01:04:26.932Z,0.00
2022-09-21T01:05:26.931Z,0.00
2022-09-21T01:06:26.922Z,0.00
2022-09-21T01:07:26.921Z,0.00
2022-09-21T01:08:26.951Z,0.00
2022-09-21T01:09:26.919Z,0.00
2022-09-21T01:10:26.912Z,0.00
2022-09-21T01:11:26.911Z,0.00
2022-09-21T01:12:26.908Z,0.00
2022-09-21T01:13:26.903Z,0.00
2022-09-21T01:14:26.900Z,0.00
2022-09-21T01:15:26.899Z,0.00
2022-09-21T01:16:26.935Z,0.00
2022-09-21T01:17:26.899Z,0.00
2022-09-21T01:18:26.888Z,0.00
2022-09-21T01:19:26.887Z,0.00
2022-09-21T01:20:26.883Z,0.00
2022-09-21T01:21:26.884Z,0.00
2022-09-21T01:22:26.874Z,0.00
2022-09-21T01:23:26.876Z,0.00
2022-09-21T01:24:26.890Z,0.00
2022-09-21T01:25:26.868Z,0.00
2022-09-21T01:26:26.864Z,0.00
2022-09-21T01:27:26.868Z,0.00
2022-09-21T01:28:26.860Z,0.00
2022-09-21T01:29:26.861Z,0.00
2022-09-21T01:30:26.853Z,0.00
2022-09-21T01:31:26.945Z,0.00
2022-09-21T01:32:26.845Z,0.00
2022-09-21T01:33:26.848Z,0.00
2022-09-21T01:34:26.854Z,0.00
2022-09-21T01:35:26.838Z,0.00
2022-09-21T01:36:26.835Z,0.00
2022-09-21T01:37:26.835Z,0.00
2022-09-21T01:38:26.832Z,0.00
2022-09-21T01:39:26.833Z,0.00
2022-09-21T01:40:26.888Z,0.00
2022-09-21T01:41:26.820Z,0.00
2022-09-21T01:42:26.814Z,0.00
2022-09-21T01:43:26.813Z,0.00
2022-09-21T01:44:26.811Z,0.00
2022-09-21T01:45:26.849Z,0.00
2022-09-21T01:46:26.803Z,0.00
2022-09-21T01:47:26.807Z,0.00
2022-09-21T01:48:26.798Z,0.00
2022-09-21T01:49:26.798Z,0.00
2022-09-21T01:50:26.791Z,0.00
2022-09-21T01:51:26.792Z,0.00
2022-09-21T01:52:26.783Z,0.00
2022-09-21T01:53:26.782Z,0.00
2022-09-21T01:54:26.778Z,0.00
2022-09-21T01:55:26.779Z,0.00
2022-09-21T01:56:26.792Z,0.00
2022-09-21T01:57:26.770Z,0.00
2022-09-21T01:58:26.764Z,0.00
2022-09-21T01:59:26.763Z,0.00
2022-09-21T02:00:26.765Z,0.00
2022-09-21T02:01:26.764Z,0.00
2022-09-21T02:02:26.752Z,0.00
2022-09-21T02:03:26.751Z,0.00
2022-09-21T02:04:26.746Z,0.00
2022-09-21T02:05:26.743Z,0.00
2022-09-21T02:06:26.741Z,0.00
2022-09-21T02:07:26.739Z,0.00
2022-09-21T02:08:26.732Z,0.00
2022-09-21T02:09:26.733Z,0.00
2022-09-21T02:10:26.726Z,0.00
2022-09-21T02:11:26.724Z,0.00
2022-09-21T02:12:26.739Z,0.00
2022-09-21T02:13:26.721Z,0.00
2022-09-21T02:14:26.715Z,0.00
2022-09-21T02:15:26.714Z,0.00
2022-09-21T02:16:26.740Z,0.00
2022-09-21T02:17:26.711Z,0.00
2022-09-21T02:18:26.710Z,0.00
2022-09-21T02:19:26.700Z,0.00
2022-09-21T02:20:26.697Z,0.00
2022-09-21T02:21:26.695Z,0.00
2022-09-21T02:22:26.692Z,0.00
2022-09-21T02:23:26.686Z,0.00
2022-09-21T02:24:26.688Z,0.00
2022-09-21T02:25:26.683Z,0.00
2022-09-21T02:26:26.676Z,0.00
2022-09-21T02:27:26.675Z,0.00
2022-09-21T02:28:26.691Z,0.00
2022-09-21T02:29:26.668Z,0.00
2022-09-21T02:30:26.667Z,0.00
2022-09-21T02:31:26.690Z,0.00
2022-09-21T02:32:26.661Z,0.00
2022-09-21T02:33:26.662Z,0.00
2022-09-21T02:34:26.655Z,0.00
2022-09-21T02:35:26.652Z,0.00
2022-09-21T02:36:26.645Z,0.00
2022-09-21T02:37:26.651Z,0.00
2022-09-21T02:38:26.640Z,0.00
2022-09-21T02:39:26.639Z,0.00
2022-09-21T02:40:26.711Z,0.00
2022-09-21T02:41:26.636Z,0.00
2022-09-21T02:42:26.628Z,0.00
2022-09-21T02:43:26.626Z,0.00
2022-09-21T02:44:26.639Z,0.00
2022-09-21T02:45:26.623Z,0.00
2022-09-21T02:46:26.666Z,0.00
2022-09-21T02:47:26.615Z,0.00
2022-09-21T02:48:26.616Z,0.00
2022-09-21T02:49:26.614Z,0.00
2022-09-21T02:50:26.608Z,0.00
2022-09-21T02:51:26.602Z,0.00
2022-09-21T02:52:26.601Z,0.00
2022-09-21T02:53:26.596Z,0.00
2022-09-21T02:54:26.590Z,0.00
2022-09-21T02:55:26.591Z,0.00
2022-09-21T02:56:26.591Z,0.00
2022-09-21T02:57:26.587Z,0.00
2022-09-21T02:58:26.580Z,0.00
2022-09-21T02:59:26.580Z,0.00
2022-09-21T03:00:26.622Z,0.00
2022-09-21T03:01:26.571Z,0.00
2022-09-21T03:02:26.567Z,0.00
2022-09-21T03:03:26.563Z,0.00
2022-09-21T03:04:26.558Z,0.00
2022-09-21T03:05:26.556Z,0.00
2022-09-21T03:06:26.550Z,0.00
2022-09-21T03:07:26.549Z,0.00
2022-09-21T03:08:26.550Z,0.00
2022-09-21T03:09:26.545Z,0.00
2022-09-21T03:10:26.540Z,0.00
2022-09-21T03:11:26.538Z,0.00
2022-09-21T03:12:26.539Z,0.00
2022-09-21T03:13:26.538Z,0.00
2022-09-21T03:14:26.527Z,0.00
2022-09-21T03:15:26.525Z,0.00
2022-09-21T03:16:26.539Z,0.00
2022-09-21T03:17:26.522Z,0.00
2022-09-21T03:18:26.513Z,0.00
2022-09-21T03:19:26.513Z,0.00
2022-09-21T03:20:26.509Z,0.00
2022-09-21T03:21:26.506Z,0.00
2022-09-21T03:22:26.498Z,0.00
2022-09-21T03:23:26.498Z,0.00
2022-09-21T03:24:26.493Z,0.00
2022-09-21T03:25:26.494Z,0.00
2022-09-21T03:26:26.487Z,0.00
2022-09-21T03:27:26.495Z,0.00
2022-09-21T03:28:26.480Z,0.00
2022-09-21T03:29:26.478Z,0.00
2022-09-21T03:30:26.474Z,0.00
2022-09-21T03:31:26.551Z,0.00
2022-09-21T03:32:26.488Z,0.00
2022-09-21T03:33:26.465Z,0.00
2022-09-21T03:34:26.463Z,0.00
2022-09-21T03:35:26.459Z,0.00
2022-09-21T03:36:26.453Z,0.00
2022-09-21T03:37:26.479Z,0.00
2022-09-21T03:38:26.445Z,0.00
2022-09-21T03:39:26.446Z,0.00
2022-09-21T03:40:26.481Z,0.00
2022-09-21T03:41:26.437Z,0.00
2022-09-21T03:42:26.432Z,0.00
2022-09-21T03:43:26.428Z,0.00
2022-09-21T03:44:26.428Z,0.00
2022-09-21T03:45:26.423Z,0.00
2022-09-21T03:46:26.443Z,0.00
2022-09-21T03:47:26.418Z,0.00
2022-09-21T03:48:26.431Z,0.00
2022-09-21T03:49:26.411Z,0.00
2022-09-21T03:50:26.402Z,0.00
2022-09-21T03:51:26.406Z,0.00
2022-09-21T03:52:26.401Z,0.00
2022-09-21T03:53:26.399Z,0.00
2022-09-21T03:54:26.393Z,0.00
2022-09-21T03:55:26.390Z,0.00
2022-09-21T03:56:26.393Z,0.00
2022-09-21T03:57:26.384Z,0.00
2022-09-21T03:58:26.386Z,0.00
2022-09-21T03:59:26.386Z,0.00
2022-09-21T04:00:26.373Z,0.00
2022-09-21T04:01:26.421Z,0.00
2022-09-21T04:02:26.409Z,0.00
2022-09-21T04:03:26.369Z,0.00
2022-09-21T04:04:26.381Z,0.00
2022-09-21T04:05:26.358Z,0.00
2022-09-21T04:06:26.349Z,0.00
2022-09-21T04:07:26.348Z,0.00
2022-09-21T04:08:26.345Z,0.00
2022-09-21T04:09:26.343Z,0.00
2022-09-21T04:10:26.334Z,0.00
2022-09-21T04:11:26.335Z,0.00
2022-09-21T04:12:26.327Z,0.00
2022-09-21T04:13:26.328Z,0.00
2022-09-21T04:14:26.321Z,0.00
2022-09-21T04:15:26.320Z,0.00
2022-09-21T04:16:26.316Z,0.00
2022-09-21T04:17:26.324Z,0.00
2022-09-21T04:18:26.324Z,0.00
2022-09-21T04:19:26.306Z,0.00
2022-09-21T04:20:26.320Z,0.00
2022-09-21T04:21:26.300Z,0.00
2022-09-21T04:22:26.292Z,0.00
2022-09-21T04:23:26.293Z,0.00
2022-09-21T04:24:26.350Z,0.00
2022-09-21T04:25:26.285Z,0.00
2022-09-21T04:26:26.283Z,0.00
2022-09-21T04:27:26.279Z,0.00
2022-09-21T04:28:26.274Z,0.00
2022-09-21T04:29:26.269Z,0.00
2022-09-21T04:30:26.264Z,0.00
2022-09-21T04:31:26.356Z,0.00
2022-09-21T04:32:26.257Z,0.00
2022-09-21T04:33:26.265Z,0.00
2022-09-21T04:34:26.251Z,0.00
2022-09-21T04:35:26.246Z,0.00
2022-09-21T04:36:26.268Z,0.00
2022-09-21T04:37:26.244Z,0.00
2022-09-21T04:38:26.234Z,0.00
2022-09-21T04:39:26.249Z,0.00
2022-09-21T04:40:26.285Z,0.00
2022-09-21T04:41:26.227Z,0.00
2022-09-21T04:42:26.221Z,0.00
2022-09-21T04:43:26.227Z,0.00
2022-09-21T04:44:26.214Z,0.00
2022-09-21T04:45:26.216Z,0.00
2022-09-21T04:46:26.265Z,0.00
2022-09-21T04:47:26.206Z,0.00
2022-09-21T04:48:26.202Z,0.00
2022-09-21T04:49:26.196Z,0.00
2022-09-21T04:50:26.192Z,0.00
2022-09-21T04:51:26.189Z,0.00
2022-09-21T04:52:26.310Z,0.00
2022-09-21T04:53:26.191Z,0.00
2022-09-21T04:54:26.179Z,0.00
2022-09-21T04:55:26.280Z,0.00
2022-09-21T04:56:26.174Z,0.00
2022-09-21T04:57:26.168Z,0.00
2022-09-21T04:58:26.165Z,4.00
2022-09-21T04:59:26.170Z,0.00
2022-09-21T05:00:26.172Z,0.00
2022-09-21T05:01:26.180Z,0.00
2022-09-21T05:02:26.148Z,4.00
2022-09-21T05:03:26.211Z,0.00
2022-09-21T05:04:26.150Z,0.00
2022-09-21T05:05:26.137Z,4.00
2022-09-21T05:06:26.135Z,4.00
2022-09-21T05:07:26.132Z,4.00
2022-09-21T05:08:26.153Z,4.00
2022-09-21T05:09:26.122Z,4.00
2022-09-21T05:10:26.117Z,4.00
2022-09-21T05:11:26.113Z,4.00
2022-09-21T05:12:26.114Z,8.00
2022-09-21T05:13:26.107Z,4.00
2022-09-21T05:14:26.106Z,8.00
2022-09-21T05:15:26.159Z,8.00
2022-09-21T05:16:26.096Z,12.00
2022-09-21T05:17:26.093Z,12.00
2022-09-21T05:18:26.089Z,12.00
2022-09-21T05:19:26.088Z,12.00
2022-09-21T05:20:26.088Z,16.00
2022-09-21T05:21:26.080Z,16.00
2022-09-21T05:22:26.076Z,16.00
2022-09-21T05:23:26.076Z,16.00
2022-09-21T05:24:26.180Z,20.00
2022-09-21T05:25:26.066Z,24.00
2022-09-21T05:26:26.061Z,20.00
2022-09-21T05:27:26.054Z,24.00
2022-09-21T05:28:26.050Z,24.00
2022-09-21T05:29:26.049Z,28.00
2022-09-21T05:30:26.081Z,28.00
2022-09-21T05:31:26.131Z,32.00
2022-09-21T05:32:26.037Z,32.00
2022-09-21T05:33:26.033Z,36.00
2022-09-21T05:34:26.028Z,36.00
2022-09-21T05:35:26.024Z,40.00
2022-09-21T05:36:26.019Z,40.00
2022-09-21T05:37:26.017Z,44.00
2022-09-21T05:38:26.013Z,48.00
2022-09-21T05:39:26.007Z,48.00
2022-09-21T05:40:26.180Z,48.00
2022-09-21T05:41:26.011Z,52.00
2022-09-21T05:42:26.001Z,52.00
2022-09-21T05:43:25.991Z,56.00
2022-09-21T05:44:25.996Z,60.00
2022-09-21T05:45:25.987Z,60.00
2022-09-21T05:46:26.037Z,64.00
2022-09-21T05:47:25.981Z,64.00
2022-09-21T05:48:25.980Z,68.00
2022-09-21T05:49:25.971Z,68.00
2022-09-21T05:50:25.966Z,72.00
2022-09-21T05:51:25.964Z,72.00
2022-09-21T05:52:25.961Z,76.00
2022-09-21T05:53:25.954Z,80.00
2022-09-21T05:54:25.953Z,80.00
2022-09-21T05:55:25.947Z,84.00
2022-09-21T05:56:25.966Z,84.00
2022-09-21T05:57:30.497Z,84.00
2022-09-21T05:58:25.944Z,88.00
2022-09-21T05:59:25.947Z,92.00
2022-09-21T06:00:25.929Z,92.00
2022-09-21T06:01:25.969Z,96.00
2022-09-21T06:02:25.979Z,96.00
2022-09-21T06:03:25.919Z,100.00
2022-09-21T06:04:25.912Z,100.00
2022-09-21T06:05:25.908Z,104.00
2022-09-21T06:06:25.908Z,108.00
2022-09-21T06:07:25.902Z,108.00
2022-09-21T06:08:25.900Z,108.00
2022-09-21T06:09:25.899Z,112.00
2022-09-21T06:10:25.894Z,116.00
2022-09-21T06:11:25.888Z,116.00
2022-09-21T06:12:25.901Z,120.00
2022-09-21T06:13:25.881Z,120.00
2022-09-21T06:14:25.879Z,124.00
2022-09-21T06:15:25.871Z,124.00
2022-09-21T06:16:25.900Z,132.00
2022-09-21T06:17:25.865Z,132.00
2022-09-21T06:18:25.862Z,136.00
2022-09-21T06:19:25.856Z,140.00
2022-09-21T06:20:25.853Z,144.00
2022-09-21T06:21:25.850Z,152.00
2022-09-21T06:22:25.848Z,156.00
2022-09-21T06:23:25.843Z,156.00
2022-09-21T06:24:25.843Z,164.00
2022-09-21T06:25:25.835Z,164.00
2022-09-21T06:26:25.834Z,168.00
2022-09-21T06:27:25.827Z,172.00
2022-09-21T06:28:25.859Z,176.00
2022-09-21T06:29:25.820Z,180.00
2022-09-21T06:30:25.875Z,184.00
2022-09-21T06:31:25.810Z,188.00
2022-09-21T06:32:25.807Z,192.00
2022-09-21T06:33:25.812Z,196.00
2022-09-21T06:34:25.801Z,200.00
2022-09-21T06:35:25.796Z,200.00
2022-09-21T06:36:25.798Z,204.00
2022-09-21T06:37:25.790Z,212.00
2022-09-21T06:38:25.798Z,216.00
2022-09-21T06:39:25.782Z,220.00
2022-09-21T06:40:25.841Z,220.00
2022-09-21T06:41:25.777Z,224.00
2022-09-21T06:42:25.778Z,228.00
2022-09-21T06:43:25.771Z,232.00
2022-09-21T06:44:25.794Z,240.00
2022-09-21T06:45:25.762Z,240.00
2022-09-21T06:46:25.760Z,248.00
2022-09-21T06:47:25.754Z,252.00
2022-09-21T06:48:25.751Z,256.00
2022-09-21T06:49:25.747Z,256.00
2022-09-21T06:50:25.747Z,264.00
2022-09-21T06:51:25.738Z,268.00
2022-09-21T06:52:25.736Z,268.00
2022-09-21T06:53:25.741Z,276.00
2022-09-21T06:54:25.731Z,280.00
2022-09-21T06:55:25.727Z,280.00
2022-09-21T06:56:25.724Z,288.00
2022-09-21T06:57:25.720Z,292.00
2022-09-21T06:58:25.726Z,300.00
2022-09-21T06:59:25.713Z,312.00
2022-09-21T07:00:25.836Z,320.00
2022-09-21T07:01:25.882Z,336.00
2022-09-21T07:02:25.701Z,344.00
2022-09-21T07:03:25.697Z,360.00
2022-09-21T07:04:25.699Z,384.00
2022-09-21T07:05:25.692Z,440.00
2022-09-21T07:06:25.692Z,540.00
2022-09-21T07:07:25.685Z,664.00
2022-09-21T07:10:25.750Z,1284.00
2022-09-21T07:11:25.674Z,5876.00
2022-09-21T07:12:25.672Z,7368.00
2022-09-21T07:13:25.665Z,1944.00
2022-09-21T07:14:25.663Z,1336.00
2022-09-21T07:15:25.665Z,980.00
2022-09-21T07:16:25.722Z,728.00
2022-09-21T07:17:25.653Z,912.00
2022-09-21T07:18:25.650Z,1800.00
2022-09-21T07:19:25.646Z,4468.00
2022-09-21T07:20:25.720Z,16352.00
2022-09-21T07:21:25.643Z,15104.00
2022-09-21T07:22:25.642Z,7344.00
2022-09-21T07:23:25.635Z,5912.00
2022-09-21T07:24:25.635Z,9492.00
2022-09-21T07:25:25.658Z,8808.00
2022-09-21T07:26:25.633Z,3060.00
2022-09-21T07:27:25.626Z,2100.00
2022-09-21T07:28:25.631Z,5676.00
2022-09-21T07:29:25.640Z,9612.00
2022-09-21T07:30:25.616Z,22240.00
2022-09-21T07:31:25.649Z,6824.00
2022-09-21T07:32:25.628Z,1524.00
2022-09-21T07:33:25.607Z,1320.00
2022-09-21T07:34:25.607Z,1400.00
2022-09-21T07:35:25.601Z,1532.00
2022-09-21T07:36:25.603Z,1936.00
2022-09-21T07:37:25.596Z,2952.00
2022-09-21T07:38:25.598Z,4032.00
2022-09-21T07:39:25.597Z,7768.00
2022-09-21T07:40:25.654Z,4340.00
2022-09-21T07:41:25.585Z,2148.00
2022-09-21T07:42:25.585Z,1396.00
2022-09-21T07:43:25.582Z,1580.00
2022-09-21T07:44:25.579Z,2136.00
2022-09-21T07:45:25.640Z,3000.00
2022-09-21T07:46:25.574Z,8656.00
2022-09-21T07:47:25.572Z,22432.00
2022-09-21T07:48:25.648Z,29440.00
2022-09-21T07:49:25.568Z,21344.00
2022-09-21T07:50:25.564Z,14404.00
2022-09-21T07:51:25.563Z,9352.00
2022-09-21T07:52:25.564Z,2872.00
2022-09-21T07:53:25.572Z,2380.00
2022-09-21T07:54:25.559Z,5912.00
2022-09-21T07:55:25.556Z,8488.00
2022-09-21T07:56:25.553Z,13636.00
2022-09-21T07:57:25.551Z,12436.00
2022-09-21T07:58:25.551Z,14272.00
2022-09-21T07:59:25.549Z,16960.00
2022-09-21T08:00:25.546Z,6900.00
2022-09-21T08:01:25.616Z,3712.00
2022-09-21T08:02:25.652Z,10860.00
2022-09-21T08:03:25.540Z,15744.00
2022-09-21T08:04:25.560Z,12516.00
2022-09-21T08:05:25.537Z,7588.00
2022-09-21T08:06:25.536Z,6284.00
2022-09-21T08:07:25.532Z,7388.00
2022-09-21T08:08:25.533Z,12244.00
2022-09-21T08:09:25.533Z,3860.00
2022-09-21T08:10:25.528Z,3788.00
2022-09-21T08:11:25.528Z,2760.00
2022-09-21T08:12:25.527Z,2888.00
2022-09-21T08:13:25.523Z,2528.00
2022-09-21T08:14:26.679Z,1440.00
2022-09-21T08:15:47.342Z,2564.00
2022-09-21T08:16:25.647Z,5696.00
2022-09-21T08:17:25.519Z,6540.00
2022-09-21T08:18:25.516Z,4192.00
2022-09-21T08:19:25.516Z,1640.00
2022-09-21T08:20:25.556Z,804.00
2022-09-21T08:21:25.520Z,600.00
2022-09-21T08:22:25.510Z,492.00
2022-09-21T08:23:25.509Z,480.00
2022-09-21T08:24:25.505Z,484.00
2022-09-21T08:25:25.508Z,488.00
2022-09-21T08:26:25.506Z,516.00
2022-09-21T08:27:25.509Z,508.00
2022-09-21T08:28:25.511Z,476.00
2022-09-21T08:29:25.505Z,448.00
2022-09-21T08:30:25.504Z,428.00
2022-09-21T08:31:25.561Z,440.00
2022-09-21T08:32:49.323Z,444.00
2022-09-21T08:33:29.249Z,436.00
2022-09-21T08:34:25.495Z,428.00
2022-09-21T08:35:25.490Z,420.00
2022-09-21T08:36:25.509Z,392.00
2022-09-21T08:37:25.484Z,384.00
2022-09-21T08:38:25.484Z,380.00
2022-09-21T08:39:25.561Z,372.00
2022-09-21T08:40:25.510Z,368.00
2022-09-21T08:41:25.479Z,372.00
2022-09-21T08:42:25.477Z,384.00
2022-09-21T08:43:25.475Z,388.00
2022-09-21T08:44:25.472Z,380.00
2022-09-21T08:45:25.468Z,352.00
2022-09-21T08:46:25.519Z,372.00
2022-09-21T08:47:25.466Z,372.00
2022-09-21T08:48:29.984Z,416.00
2022-09-21T08:49:25.467Z,412.00
2022-09-21T08:50:25.459Z,384.00
2022-09-21T08:51:25.456Z,352.00
2022-09-21T08:52:25.476Z,328.00
2022-09-21T08:53:25.455Z,316.00
2022-09-21T08:54:25.451Z,320.00
2022-09-21T08:55:25.450Z,320.00
2022-09-21T08:56:33.005Z,320.00
2022-09-21T08:57:25.447Z,312.00
2022-09-21T08:58:25.453Z,316.00
2022-09-21T08:59:25.444Z,316.00
2022-09-21T09:00:25.517Z,316.00
2022-09-21T09:01:25.522Z,316.00
2022-09-21T09:02:25.535Z,316.00
2022-09-21T09:03:25.436Z,316.00
2022-09-21T09:04:25.448Z,312.00
2022-09-21T09:05:25.433Z,308.00
2022-09-21T09:06:26.913Z,308.00
2022-09-21T09:07:25.429Z,304.00
2022-09-21T09:08:25.447Z,308.00
2022-09-21T09:09:25.424Z,300.00
2022-09-21T09:10:25.427Z,296.00
2022-09-21T09:11:25.422Z,296.00
2022-09-21T09:12:25.426Z,288.00
2022-09-21T09:13:25.418Z,292.00
2022-09-21T09:14:25.425Z,280.00
2022-09-21T09:15:25.416Z,276.00
2022-09-21T09:16:25.454Z,272.00
2022-09-21T09:17:25.411Z,272.00
2022-09-21T09:18:25.405Z,272.00
2022-09-21T09:19:25.410Z,272.00
2022-09-21T09:20:25.408Z,268.00
2022-09-21T09:21:31.342Z,276.00
2022-09-21T09:22:25.396Z,272.00
2022-09-21T09:23:25.398Z,268.00
2022-09-21T09:24:25.413Z,264.00
2022-09-21T09:25:25.396Z,264.00
2022-09-21T09:26:25.391Z,260.00
2022-09-21T09:27:25.390Z,256.00
2022-09-21T09:28:25.387Z,256.00
2022-09-21T09:29:25.385Z,256.00
2022-09-21T09:30:25.377Z,252.00
2022-09-21T09:31:25.442Z,252.00
2022-09-21T09:32:25.377Z,252.00
2022-09-21T09:33:25.375Z,252.00
2022-09-21T09:34:25.373Z,252.00
2022-09-21T09:35:25.373Z,248.00
2022-09-21T09:36:46.507Z,248.00
2022-09-21T09:37:25.368Z,248.00
2022-09-21T09:38:25.363Z,248.00
2022-09-21T09:39:25.371Z,248.00
2022-09-21T09:40:25.481Z,244.00
2022-09-21T09:41:25.359Z,224.00
2022-09-21T09:42:25.358Z,232.00
2022-09-21T09:43:25.356Z,236.00
2022-09-21T09:44:25.352Z,240.00
2022-09-21T09:45:26.333Z,236.00
2022-09-21T09:46:25.377Z,232.00
2022-09-21T09:47:25.346Z,232.00
2022-09-21T09:48:25.340Z,228.00
2022-09-21T09:49:25.342Z,224.00
2022-09-21T09:50:25.335Z,224.00
2022-09-21T09:51:25.335Z,220.00
2022-09-21T09:52:25.332Z,224.00
2022-09-21T09:53:25.333Z,224.00
2022-09-21T09:54:25.328Z,220.00
2022-09-21T09:55:25.329Z,224.00
2022-09-21T09:56:25.353Z,212.00
2022-09-21T09:57:25.339Z,216.00
2022-09-21T09:58:25.320Z,216.00
2022-09-21T09:59:25.324Z,216.00
2022-09-21T10:00:25.316Z,216.00
2022-09-21T10:01:25.347Z,216.00
2022-09-21T10:02:25.406Z,216.00
2022-09-21T10:03:25.329Z,216.00
2022-09-21T10:04:25.353Z,212.00
2022-09-21T10:05:25.309Z,208.00
2022-09-21T10:06:25.303Z,212.00
2022-09-21T10:07:25.317Z,212.00
2022-09-21T10:08:25.303Z,208.00
2022-09-21T10:09:25.306Z,212.00
2022-09-21T10:10:25.396Z,212.00
2022-09-21T10:11:25.294Z,208.00
2022-09-21T10:12:25.338Z,212.00
2022-09-21T10:13:25.295Z,208.00
2022-09-21T10:14:25.287Z,208.00
2022-09-21T10:15:25.289Z,204.00
2022-09-21T10:16:25.329Z,204.00
2022-09-21T10:17:25.283Z,204.00
2022-09-21T10:18:25.278Z,208.00
2022-09-21T10:19:25.281Z,204.00
2022-09-21T10:20:25.275Z,204.00
2022-09-21T10:21:25.277Z,208.00
2022-09-21T10:22:25.272Z,212.00
2022-09-21T10:23:25.271Z,208.00
2022-09-21T10:24:25.270Z,208.00
2022-09-21T10:25:25.268Z,204.00
2022-09-21T10:26:25.263Z,204.00
2022-09-21T10:27:25.262Z,204.00
2022-09-21T10:28:25.278Z,212.00
2022-09-21T10:29:25.265Z,216.00
2022-09-21T10:30:25.255Z,220.00
2022-09-21T10:31:25.278Z,216.00
2022-09-21T10:32:25.251Z,212.00
2022-09-21T10:33:25.253Z,216.00
2022-09-21T10:34:25.247Z,216.00
2022-09-21T10:35:25.250Z,220.00
2022-09-21T10:36:25.244Z,240.00
2022-09-21T10:37:25.243Z,260.00
2022-09-21T10:38:25.241Z,284.00
2022-09-21T10:39:25.239Z,272.00
2022-09-21T10:40:25.381Z,260.00
2022-09-21T10:41:25.237Z,260.00
2022-09-21T10:42:25.231Z,248.00
2022-09-21T10:43:25.233Z,260.00
2022-09-21T10:44:25.258Z,264.00
2022-09-21T10:45:25.231Z,256.00
2022-09-21T10:46:25.322Z,256.00
2022-09-21T10:47:25.226Z,272.00
2022-09-21T10:48:25.220Z,288.00
2022-09-21T10:49:25.219Z,308.00
2022-09-21T10:50:25.219Z,344.00
2022-09-21T10:51:25.216Z,452.00
2022-09-21T10:52:25.213Z,540.00
2022-09-21T10:53:25.218Z,560.00
2022-09-21T10:54:25.210Z,568.00
2022-09-21T10:55:25.208Z,568.00
2022-09-21T10:56:25.205Z,560.00
2022-09-21T10:57:25.204Z,528.00
2022-09-21T10:58:25.207Z,520.00
2022-09-21T10:59:25.200Z,508.00
2022-09-21T11:00:25.215Z,484.00
2022-09-21T11:01:25.237Z,440.00
2022-09-21T11:02:25.253Z,408.00
2022-09-21T11:03:25.375Z,356.00
2022-09-21T11:04:25.193Z,340.00
2022-09-21T11:05:25.190Z,356.00
2022-09-21T11:06:25.187Z,356.00
2022-09-21T11:07:25.188Z,364.00
2022-09-21T11:08:25.182Z,356.00
2022-09-21T11:09:25.181Z,328.00
2022-09-21T11:10:25.177Z,316.00
2022-09-21T11:11:25.177Z,304.00
2022-09-21T11:12:25.174Z,296.00
2022-09-21T11:13:25.241Z,292.00
2022-09-21T11:14:25.182Z,288.00
2022-09-21T11:15:25.231Z,296.00
2022-09-21T11:16:25.187Z,304.00
2022-09-21T11:17:25.168Z,292.00
2022-09-21T11:18:25.167Z,284.00
2022-09-21T11:19:25.162Z,272.00
2022-09-21T11:20:25.161Z,276.00
2022-09-21T11:21:25.158Z,292.00
2022-09-21T11:22:25.154Z,304.00
2022-09-21T11:23:25.155Z,300.00
2022-09-21T11:24:25.152Z,292.00
2022-09-21T11:25:25.156Z,276.00
2022-09-21T11:26:25.152Z,280.00
2022-09-21T11:27:25.148Z,280.00
2022-09-21T11:28:25.145Z,264.00
2022-09-21T11:30:25.158Z,260.00
2022-09-21T11:31:25.200Z,264.00
2022-09-21T11:32:25.233Z,276.00
2022-09-21T11:33:25.145Z,296.00
2022-09-21T11:34:25.133Z,312.00
2022-09-21T11:35:25.137Z,304.00
2022-09-21T11:36:25.131Z,296.00
2022-09-21T11:37:25.131Z,288.00
2022-09-21T11:38:25.125Z,284.00
2022-09-21T11:39:25.128Z,288.00
2022-09-21T11:40:25.202Z,296.00
2022-09-21T11:41:25.122Z,312.00
2022-09-21T11:42:25.120Z,308.00
2022-09-21T11:43:25.120Z,296.00
2022-09-21T11:44:25.115Z,280.00
2022-09-21T11:45:25.119Z,272.00
2022-09-21T11:46:25.159Z,272.00
2022-09-21T11:47:25.113Z,276.00
2022-09-21T11:48:25.126Z,276.00
2022-09-21T11:49:25.108Z,280.00
2022-09-21T11:50:32.405Z,284.00
2022-09-21T11:51:25.107Z,292.00
2022-09-21T11:52:25.103Z,304.00
2022-09-21T11:53:25.100Z,304.00
2022-09-21T11:54:25.099Z,308.00
2022-09-21T11:55:25.105Z,312.00
2022-09-21T11:56:25.097Z,316.00
2022-09-21T11:57:25.096Z,312.00
2022-09-21T11:58:25.092Z,296.00
2022-09-21T11:59:25.094Z,296.00
2022-09-21T12:00:25.093Z,312.00
2022-09-21T12:01:25.093Z,340.00
2022-09-21T12:02:25.369Z,352.00
2022-09-21T12:03:25.086Z,344.00
2022-09-21T12:04:25.104Z,328.00
2022-09-21T12:05:25.085Z,328.00
2022-09-21T12:06:25.080Z,332.00
2022-09-21T12:07:25.079Z,340.00
2022-09-21T12:08:25.075Z,344.00
2022-09-21T12:09:25.079Z,344.00
2022-09-21T12:10:25.074Z,348.00
2022-09-21T12:11:25.074Z,360.00
2022-09-21T12:12:25.069Z,368.00
2022-09-21T12:13:25.081Z,368.00
2022-09-21T12:14:25.150Z,364.00
2022-09-21T12:15:25.064Z,360.00
2022-09-21T12:16:25.099Z,364.00
2022-09-21T12:17:25.065Z,352.00
2022-09-21T12:18:25.060Z,348.00
2022-09-21T12:19:25.061Z,352.00
2022-09-21T12:20:25.073Z,364.00
2022-09-21T12:21:25.054Z,356.00
2022-09-21T12:22:25.051Z,332.00
2022-09-21T12:23:25.073Z,324.00
2022-09-21T12:24:28.542Z,328.00
2022-09-21T12:25:25.049Z,336.00
2022-09-21T12:26:25.044Z,344.00
2022-09-21T12:27:25.073Z,348.00
2022-09-21T12:28:25.042Z,344.00
2022-09-21T12:29:25.046Z,340.00
2022-09-21T12:30:25.079Z,332.00
2022-09-21T12:31:25.037Z,320.00
2022-09-21T12:32:25.039Z,320.00
2022-09-21T12:33:25.033Z,328.00
2022-09-21T12:34:25.038Z,340.00
2022-09-21T12:35:25.039Z,340.00
2022-09-21T12:36:25.052Z,340.00
2022-09-21T12:37:25.036Z,340.00
2022-09-21T12:38:25.053Z,352.00
2022-09-21T12:39:25.025Z,356.00
2022-09-21T12:40:25.133Z,364.00
2022-09-21T12:41:25.024Z,380.00
2022-09-21T12:42:25.021Z,388.00
2022-09-21T12:43:25.018Z,392.00
2022-09-21T12:44:25.015Z,392.00
2022-09-21T12:45:25.016Z,380.00
2022-09-21T12:46:25.055Z,360.00
2022-09-21T12:47:25.020Z,320.00
2022-09-21T12:48:25.011Z,272.00
2022-09-21T12:49:25.010Z,264.00
2022-09-21T12:50:25.009Z,264.00